Time;durP1;ratioP1;P1;durP2;ratioP2;P2;SDS_P1;SDS_P2;PMS_P1;PMS_P2;Temp;Humidity;BMP_temperature;BMP_pressure;BME280_temperature;BME280_humidity;BME280_pressure;Samples;Min_cycle;Max_cycle;Signal;HPM_P1;HPM_P2
2021/06/19 03:18:01;;;;;;;;;;;;;;;4.89;97.13;99538.06;3303964;26;20273;-85
2021/06/19 03:20:27;;;;;;;;;;;;;;;5.02;97.29;99537.78;4963286;28;19922;-87
2021/06/19 03:22:53;;;;;;;;;;;;;;;4.96;96.93;99544.03;4963038;28;20302;-87
2021/06/19 03:25:23;;;;;;;;;;;;;;;5.03;97.38;99552.66;4962170;28;19962;-86
2021/06/19 03:27:49;;;;;;;;;;;;;;;5.11;99.67;99553.31;4979721;28;19965;-85
2021/06/19 03:30:16;;;;;;;;;;;;;;;5.12;100.00;99546.28;4979012;28;19968;-86
2021/06/19 03:32:41;;;;;;;;;;;;;;;4.94;98.56;99545.84;4981462;28;20000;-86
2021/06/19 03:35:07;;;;;;;;;;;;;;;5.06;98.03;99544.69;4983031;28;19919;-86
2021/06/19 03:37:33;;;;;;;;;;;;;;;4.95;98.64;99546.72;4983310;28;20008;-86
2021/06/19 03:39:58;;;;;;;;;;;;;;;4.95;98.55;99547.56;4982543;28;19922;-86
2021/06/19 03:42:23;;;;;;;;;;;;;;;4.93;98.70;99559.00;4965862;28;19937;-86
2021/06/19 03:44:49;;;;;;;;;;;;;;;5.06;97.79;99550.81;4965608;28;20290;-87
2021/06/19 03:47:14;;;;;;;;;;;;;;;5.13;96.88;99546.25;4965682;28;19977;-88
2021/06/19 03:49:39;;;;;;;;;;;;;;;5.13;99.21;99546.25;4983376;28;19968;-86
2021/06/19 03:52:05;;;;;;;;;;;;;;;5.00;97.61;99531.72;4983125;28;20226;-87
2021/06/19 03:54:30;;;;;;;;;;;;;;;5.06;97.61;99542.06;4982736;28;20991;-85
2021/06/19 03:56:56;;;;;;;;;;;;;;;5.02;97.49;99548.28;4982828;28;20197;-88
2021/06/19 03:59:21;;;;;;;;;;;;;;;5.06;100.00;99556.06;4982566;28;20013;-86
2021/06/19 04:01:46;;;;;;;;;;;;;;;4.98;97.97;99555.38;4965520;28;20249;-87
2021/06/19 04:04:12;;;;;;;;;;;;;;;4.95;98.60;99560.69;4982829;28;20282;-87
2021/06/19 04:06:37;;;;;;;;;;;;;;;4.98;98.66;99567.63;4965525;28;19922;-87
2021/06/19 04:09:03;;;;;;;;;;;;;;;5.01;98.52;99563.19;4966028;28;20257;-87
2021/06/19 04:11:28;;;;;;;;;;;;;;;5.00;98.30;99560.59;4965379;28;19980;-86
2021/06/19 04:13:53;;;;;;;;;;;;;;;5.05;98.00;99556.09;4981722;28;19945;-87
2021/06/19 04:16:18;;;;;;;;;;;;;;;4.98;98.81;99567.63;4982113;28;20197;-87
2021/06/19 04:18:44;;;;;;;;;;;;;;;5.05;98.26;99556.94;4965113;28;19922;-87
2021/06/19 04:21:10;;;;;;;;;;;;;;;4.97;99.00;99571.16;4981846;28;19922;-86
2021/06/19 04:23:35;;;;;;;;;;;;;;;5.09;98.59;99563.00;4981851;28;20025;-87
2021/06/19 04:26:01;;;;;;;;;;;;;;;5.11;99.64;99563.81;4981989;28;19953;-87
2021/06/19 04:28:27;;;;;;;;;;;;;;;5.19;98.63;99559.25;4981920;28;19961;-88
2021/06/19 04:30:56;;;;;;;;;;;;;;;4.99;97.91;99566.72;4965362;28;19922;-88
2021/06/19 04:33:21;;;;;;;;;;;;;;;5.03;98.17;99563.16;4964974;28;19973;-88
2021/06/19 04:35:46;;;;;;;;;;;;;;;4.98;98.32;99562.38;4965266;28;19922;-89
2021/06/19 04:38:12;;;;;;;;;;;;;;;5.05;97.82;99563.97;4982071;28;19962;-87
2021/06/19 04:40:46;;;;;;;;;;;;;;;5.00;98.08;99560.59;4964920;28;19985;-86
2021/06/19 04:43:12;;;;;;;;;;;;;;;5.11;97.05;99555.09;4963628;28;19926;-89
2021/06/19 08:03:14;;;;;;;;;;;;;;;4.76;97.12;99494.63;1444723;26;20261;-86
2021/06/19 08:05:39;;;;;;;;;;;;;;;4.76;97.81;99504.28;4981353;28;19930;-86
2021/06/19 08:08:05;;;;;;;;;;;;;;;4.76;97.34;99496.41;4982079;28;19961;-86
2021/06/19 08:10:30;;;;;;;;;;;;;;;4.67;98.03;99500.94;4981949;28;19922;-87
2021/06/19 08:12:56;;;;;;;;;;;;;;;4.73;98.04;99497.31;4981540;28;19932;-86
2021/06/19 08:15:21;;;;;;;;;;;;;;;4.72;99.22;99500.84;4980241;28;19933;-86
2021/06/19 08:17:47;;;;;;;;;;;;;;;4.67;97.49;99510.59;4980106;28;19922;-87
2021/06/19 08:20:13;;;;;;;;;;;;;;;4.63;98.71;99508.94;4979791;28;20013;-87
2021/06/19 08:22:39;;;;;;;;;;;;;;;4.66;97.49;99509.75;4963509;28;19984;-86
2021/06/19 08:25:05;;;;;;;;;;;;;;;4.76;97.31;99494.63;4980886;28;19930;-86
2021/06/19 08:27:31;;;;;;;;;;;;;;;4.70;97.10;99484.28;4980118;28;19926;-87
2021/06/19 08:29:57;;;;;;;;;;;;;;;4.62;98.25;99478.34;4980511;28;20428;-87
2021/06/19 08:32:22;;;;;;;;;;;;;;;4.60;97.98;99480.16;4963093;28;19922;-87
2021/06/19 08:34:48;;;;;;;;;;;;;;;4.73;97.11;99478.94;4980079;28;19922;-86
2021/06/19 08:37:13;;;;;;;;;;;;;;;4.69;96.13;99472.03;4963391;28;20229;-86
2021/06/19 08:39:39;;;;;;;;;;;;;;;4.64;97.25;99460.78;4962548;28;20286;-86
2021/06/19 08:42:05;;;;;;;;;;;;;;;4.61;97.74;99463.50;4963253;28;19937;-87
2021/06/19 08:44:30;;;;;;;;;;;;;;;4.81;98.79;99456.00;4963084;28;20265;-88
2021/06/19 08:46:57;;;;;;;;;;;;;;;4.68;98.03;99455.44;4981286;28;20218;-86
2021/06/19 08:49:23;;;;;;;;;;;;;;;4.73;97.58;99456.19;4964582;28;20014;-86
2021/06/19 08:51:56;;;;;;;;;;;;;;;4.69;97.73;99451.03;4964131;28;20357;-87
2021/06/19 08:54:41;;;;;;;;;;;;;;;4.62;98.76;99452.09;4963022;28;19922;-90
2021/06/19 08:57:07;;;;;;;;;;;;;;;4.63;98.09;99438.94;4980167;28;19929;-87
2021/06/19 08:59:32;;;;;;;;;;;;;;;4.61;97.91;99430.25;4972111;28;19933;-87
2021/06/19 09:01:58;;;;;;;;;;;;;;;4.66;96.16;99430.13;4969457;28;19926;-87
2021/06/19 09:04:23;;;;;;;;;;;;;;;4.57;97.17;99415.47;4961947;28;19926;-87
2021/06/19 09:06:48;;;;;;;;;;;;;;;4.70;96.65;99423.91;4962247;28;20017;-87
2021/06/19 09:09:15;;;;;;;;;;;;;;;4.59;96.42;99410.19;4979206;28;19957;-87
2021/06/19 09:11:42;;;;;;;;;;;;;;;4.71;97.94;99399.41;4962454;28;19944;-87
2021/06/19 09:14:08;;;;;;;;;;;;;;;4.65;96.54;99397.78;4978996;28;20444;-87
2021/06/19 09:16:34;;;;;;;;;;;;;;;4.56;97.41;99384.88;4979681;28;19949;-86
2021/06/19 09:19:00;;;;;;;;;;;;;;;4.59;96.78;99379.53;4979452;28;20196;-88
2021/06/19 09:21:35;;;;;;;;;;;;;;;4.60;97.00;99373.41;4963910;28;19925;-88
2021/06/19 09:24:06;;;;;;;;;;;;;;;4.55;98.63;99376.16;4997859;28;19925;-92
2021/06/19 09:26:33;;;;;;;;;;;;;;;4.64;97.83;99364.56;4999698;28;19925;-88
2021/06/19 09:29:02;;;;;;;;;;;;;;;4.84;99.22;99371.91;4982972;28;20012;-88
2021/06/19 09:31:32;;;;;;;;;;;;;;;4.64;98.07;99366.31;5000025;28;19968;-88
2021/06/19 09:34:05;;;;;;;;;;;;;;;4.69;97.78;99377.56;4981465;28;19961;-89
2021/06/19 09:36:37;;;;;;;;;;;;;;;4.59;98.44;99381.31;4979000;28;20294;-88
2021/06/19 09:39:05;;;;;;;;;;;;;;;4.71;98.81;99371.38;4980189;28;19925;-88
2021/06/19 09:41:34;;;;;;;;;;;;;;;4.79;97.28;99363.31;4980826;28;19922;-88
2021/06/19 09:44:00;;;;;;;;;;;;;;;4.61;97.86;99353.28;4980140;28;19933;-88
2021/06/19 09:46:25;;;;;;;;;;;;;;;4.66;96.86;99360.13;4979851;28;19922;-90
2021/06/19 09:48:50;;;;;;;;;;;;;;;4.63;96.16;99356.75;4980282;28;19922;-88
2021/06/19 09:51:24;;;;;;;;;;;;;;;4.61;98.09;99354.16;4979033;28;19933;-88
2021/06/19 09:53:50;;;;;;;;;;;;;;;4.62;98.16;99355.00;4980695;28;19922;-88
2021/06/19 09:56:17;;;;;;;;;;;;;;;4.62;99.33;99361.09;4980285;28;19922;-88
2021/06/19 09:58:47;;;;;;;;;;;;;;;4.75;96.82;99368.66;4979559;28;19922;-88
2021/06/19 10:01:42;;;;;;;;;;;;;;;4.68;97.10;99370.59;4978969;28;19958;-88
2021/06/19 10:04:15;;;;;;;;;;;;;;;4.68;98.04;99370.59;4962657;28;19926;-89
2021/06/19 10:06:41;;;;;;;;;;;;;;;4.68;98.75;99375.84;4996232;28;19929;-87
2021/06/19 10:09:06;;;;;;;;;;;;;;;4.65;99.38;99376.78;4989172;28;19922;-87
2021/06/19 10:11:34;;;;;;;;;;;;;;;4.67;100.00;99371.50;4962955;28;19922;-90
2021/06/19 10:14:00;;;;;;;;;;;;;;;4.74;99.56;99375.69;4979137;28;20016;-87
2021/06/19 10:16:29;;;;;;;;;;;;;;;4.73;99.12;99371.34;4978677;28;19922;-87
2021/06/19 10:18:55;;;;;;;;;;;;;;;4.63;100.00;99368.09;4983046;28;19921;-87
2021/06/19 10:21:23;;;;;;;;;;;;;;;4.66;99.99;99372.38;4997129;28;20186;-87
2021/06/19 10:23:51;;;;;;;;;;;;;;;4.71;99.81;99366.13;4997204;28;20290;-87
2021/06/19 10:26:24;;;;;;;;;;;;;;;4.74;100.00;99365.19;4988153;28;19926;-87
2021/06/19 10:28:52;;;;;;;;;;;;;;;4.78;98.84;99369.44;4959947;28;20294;-87
2021/06/19 10:31:18;;;;;;;;;;;;;;;4.71;99.93;99360.03;4976792;28;19918;-87
2021/06/19 10:33:45;;;;;;;;;;;;;;;4.73;100.00;99352.97;4977160;28;20298;-85
2021/06/19 10:36:11;;;;;;;;;;;;;;;4.78;100.00;99360.72;4977762;28;20087;-88
2021/06/19 10:38:48;;;;;;;;;;;;;;;4.86;99.58;99358.75;4975364;28;19922;-86
2021/06/19 10:41:14;;;;;;;;;;;;;;;4.93;99.52;99354.19;4959079;28;19941;-87
2021/06/19 10:43:44;;;;;;;;;;;;;;;4.70;100.00;99353.03;4959512;29;19927;-87
2021/06/19 10:46:27;;;;;;;;;;;;;;;4.72;99.84;99357.34;4955734;29;19923;-87
2021/06/19 10:48:54;;;;;;;;;;;;;;;4.73;100.00;99350.34;4954387;29;20016;-88
2021/06/19 10:51:24;;;;;;;;;;;;;;;4.79;100.00;99352.81;4959690;29;20009;-88
2021/06/19 10:54:22;;;;;;;;;;;;;;;4.78;100.00;99342.34;4959099;29;19923;-87
2021/06/19 10:56:56;;;;;;;;;;;;;;;4.75;100.00;99348.53;4938036;28;19923;-86
2021/06/19 10:59:23;;;;;;;;;;;;;;;4.85;100.00;99342.16;4960190;29;19926;-88
2021/06/19 11:01:50;;;;;;;;;;;;;;;4.94;100.00;99346.28;4959433;29;19922;-87
2021/06/19 11:07:03;;;;;;;;;;;;;;;4.87;100.00;99345.59;4978629;28;19984;-87
2021/06/19 11:09:41;;;;;;;;;;;;;;;4.89;100.00;99338.53;4979539;28;20008;-87
2021/06/19 11:12:22;;;;;;;;;;;;;;;4.88;100.00;99328.94;4962475;28;19922;-87
2021/06/19 11:14:52;;;;;;;;;;;;;;;4.92;100.00;99327.09;4962034;28;20009;-87
2021/06/19 11:17:17;;;;;;;;;;;;;;;4.99;100.00;99328.63;4961730;28;19922;-87
2021/06/19 11:19:47;;;;;;;;;;;;;;;4.93;100.00;99318.31;4960277;28;19929;-87
2021/06/19 11:22:32;;;;;;;;;;;;;;;4.91;100.00;99320.09;4976739;28;20214;-87
2021/06/19 11:25:13;;;;;;;;;;;;;;;4.93;100.00;99313.06;4977559;28;19922;-87
2021/06/19 11:27:57;;;;;;;;;;;;;;;5.11;100.00;99311.69;4976577;28;19928;-88
2021/06/19 11:30:34;;;;;;;;;;;;;;;5.01;100.00;99299.69;4957222;29;19922;-88
2021/06/19 11:33:29;;;;;;;;;;;;;;;5.09;100.00;99295.13;4958115;28;19923;-88
2021/06/19 11:36:00;;;;;;;;;;;;;;;5.00;100.00;99295.38;4960484;28;19962;-87
2021/06/19 11:38:42;;;;;;;;;;;;;;;5.13;100.00;99291.50;4976778;28;20017;-88
2021/06/19 11:41:11;;;;;;;;;;;;;;;5.05;100.00;99289.06;4977598;28;19953;-89
2021/06/19 11:43:36;;;;;;;;;;;;;;;5.01;100.00;99290.09;4958337;28;19926;-88
2021/06/19 11:46:02;;;;;;;;;;;;;;;5.01;100.00;99290.09;4957938;29;20486;-88
2021/06/19 11:48:28;;;;;;;;;;;;;;;4.92;100.00;99277.19;4957192;29;19933;-89
2021/06/19 11:51:03;;;;;;;;;;;;;;;4.95;100.00;99268.38;4963946;28;19923;-88
2021/06/19 11:53:33;;;;;;;;;;;;;;;5.03;100.00;99269.03;4979323;28;19929;-88
2021/06/19 11:56:15;;;;;;;;;;;;;;;4.96;100.00;99272.72;4980857;28;20301;-88
2021/06/19 11:58:59;;;;;;;;;;;;;;;5.07;100.00;99273.28;4981274;28;20194;-89
2021/06/19 12:01:30;;;;;;;;;;;;;;;5.01;100.00;99271.69;4988277;28;19984;-88
2021/06/19 12:03:59;;;;;;;;;;;;;;;5.01;100.00;99265.56;4999133;28;19926;-90
2021/06/19 12:06:32;;;;;;;;;;;;;;;5.05;100.00;99269.84;5000795;28;19957;-88
2021/06/19 12:09:00;;;;;;;;;;;;;;;5.01;100.00;99262.94;4983340;28;19921;-88
2021/06/19 12:11:29;;;;;;;;;;;;;;;5.03;100.00;99262.00;4983949;28;19930;-88
2021/06/19 12:13:55;;;;;;;;;;;;;;;5.05;100.00;99248.84;5000753;28;19922;-88
2021/06/19 12:16:26;;;;;;;;;;;;;;;5.12;100.00;99245.09;5000561;28;19922;-89
2021/06/19 12:19:02;;;;;;;;;;;;;;;5.05;100.00;99248.84;5001252;28;19977;-88
2021/06/19 12:21:32;;;;;;;;;;;;;;;5.04;100.00;99236.59;4999633;28;19953;-88
2021/06/19 12:23:57;;;;;;;;;;;;;;;4.99;100.00;99220.13;4997626;28;19952;-86
2021/06/19 12:26:22;;;;;;;;;;;;;;;5.07;100.00;99223.38;5001973;28;20204;-88
2021/06/19 12:28:49;;;;;;;;;;;;;;;5.19;100.00;99223.03;5001062;28;19922;-88
2021/06/19 12:31:15;;;;;;;;;;;;;;;5.04;100.00;99210.34;5001190;28;19975;-89
2021/06/19 12:33:42;;;;;;;;;;;;;;;5.02;100.00;99217.41;5000801;28;19930;-89
2021/06/19 12:36:09;;;;;;;;;;;;;;;5.00;100.00;99214.81;4983975;28;19921;-86
2021/06/19 12:38:35;;;;;;;;;;;;;;;5.05;100.00;99217.31;5001311;28;20277;-87
2021/06/19 12:41:00;;;;;;;;;;;;;;;5.02;100.00;99218.25;5001298;28;19932;-87
2021/06/19 12:43:27;;;;;;;;;;;;;;;5.15;100.00;99215.28;5001100;28;19926;-87
2021/06/19 12:45:53;;;;;;;;;;;;;;;5.09;100.00;99205.84;5000825;28;20016;-87
2021/06/19 12:48:29;;;;;;;;;;;;;;;5.18;100.00;99205.53;4984328;28;19921;-87
2021/06/19 12:50:55;;;;;;;;;;;;;;;5.04;100.00;99199.84;4973472;28;19973;-87
2021/06/19 12:53:39;;;;;;;;;;;;;;;5.09;100.00;99208.47;4964123;28;20493;-87
2021/06/19 12:56:06;;;;;;;;;;;;;;;5.04;100.00;99199.84;4981824;28;19922;-87
2021/06/19 12:58:38;;;;;;;;;;;;;;;5.06;100.00;99204.16;4993021;28;20216;-88
2021/06/19 13:01:14;;;;;;;;;;;;;;;5.01;100.00;99207.78;4983906;28;19953;-88
2021/06/19 13:03:39;;;;;;;;;;;;;;;5.02;100.00;99213.00;4983322;28;19936;-87
2021/06/19 13:06:04;;;;;;;;;;;;;;;5.03;100.00;99211.25;4974583;28;19922;-87
2021/06/19 13:08:30;;;;;;;;;;;;;;;5.01;100.00;99210.41;5000375;28;20447;-87
2021/06/19 13:11:00;;;;;;;;;;;;;;;5.02;100.00;99204.28;5000508;28;20245;-87
2021/06/19 13:13:39;;;;;;;;;;;;;;;5.11;100.00;99196.13;5001006;28;20196;-88
2021/06/19 13:16:04;;;;;;;;;;;;;;;5.09;100.00;99187.44;5000405;28;19922;-87
2021/06/19 13:18:30;;;;;;;;;;;;;;;5.07;100.00;99197.13;5000053;28;19922;-87
2021/06/19 13:21:08;;;;;;;;;;;;;;;5.04;100.00;99194.59;4983727;28;19922;-87
2021/06/19 13:23:33;;;;;;;;;;;;;;;5.03;100.00;99190.25;4999891;28;19926;-87
2021/06/19 13:26:06;;;;;;;;;;;;;;;5.03;100.00;99190.25;4994646;28;20320;-87
2021/06/19 13:28:32;;;;;;;;;;;;;;;5.05;100.00;99191.06;5000237;28;20004;-87
2021/06/19 13:31:08;;;;;;;;;;;;;;;5.12;100.00;99181.22;4985405;28;20217;-87
2021/06/19 13:33:34;;;;;;;;;;;;;;;5.06;100.00;99174.41;4968377;28;19933;-87
2021/06/19 13:36:00;;;;;;;;;;;;;;;5.04;100.00;99168.31;4962767;28;19922;-87
2021/06/19 13:38:25;;;;;;;;;;;;;;;5.15;100.00;99171.47;4991981;28;19932;-89
2021/06/19 13:40:50;;;;;;;;;;;;;;;5.02;100.00;99175.41;4998826;28;20372;-86
2021/06/19 13:43:16;;;;;;;;;;;;;;;5.04;100.00;99168.31;4998253;28;19926;-87
2021/06/19 13:45:41;;;;;;;;;;;;;;;5.04;100.00;99161.31;4999173;28;19922;-87
2021/06/19 13:48:06;;;;;;;;;;;;;;;5.03;100.00;99156.13;4984681;28;19962;-87
2021/06/19 13:50:32;;;;;;;;;;;;;;;5.11;100.00;99153.25;4980744;28;19954;-88
2021/06/19 13:53:01;;;;;;;;;;;;;;;4.95;100.00;99158.13;4980741;28;19925;-88
2021/06/19 13:55:28;;;;;;;;;;;;;;;4.96;100.00;99160.66;4990790;28;19930;-88
2021/06/19 13:57:53;;;;;;;;;;;;;;;5.01;100.00;99163.16;4969447;28;19922;-88
2021/06/19 14:00:19;;;;;;;;;;;;;;;5.02;100.00;99154.38;4980370;28;20282;-88
2021/06/19 14:02:44;;;;;;;;;;;;;;;5.01;100.00;99144.78;4992568;28;20003;-88
2021/06/19 14:05:10;;;;;;;;;;;;;;;4.99;100.00;99146.59;4999246;28;20297;-89
2021/06/19 14:07:35;;;;;;;;;;;;;;;4.94;100.00;99145.88;4977949;28;20042;-89
2021/06/19 14:10:01;;;;;;;;;;;;;;;4.98;100.00;99134.38;4979811;28;19926;-89
2021/06/19 14:12:26;;;;;;;;;;;;;;;4.98;100.00;99145.75;4979752;28;19933;-89
2021/06/19 14:14:51;;;;;;;;;;;;;;;4.99;100.00;99133.47;4963176;28;20232;-89
2021/06/19 14:17:17;;;;;;;;;;;;;;;4.97;100.00;99130.03;4978726;28;19933;-89
2021/06/19 14:19:42;;;;;;;;;;;;;;;4.97;100.00;99116.91;4961782;28;20376;-89
2021/06/19 14:22:07;;;;;;;;;;;;;;;5.00;100.00;99103.69;4964399;28;20346;-87
2021/06/19 14:24:33;;;;;;;;;;;;;;;4.98;100.00;99110.75;4967820;28;19950;-88
2021/06/19 16:58:17;;;;;;;;;;;;;;;5.21;100.00;98879.75;4978766;28;19945;-89
2021/06/19 17:01:14;;;;;;;;;;;;;;;;;;;;;
2021/06/19 17:04:01;;;;;;;;;;;;;;;5.24;100.00;98869.13;4961226;28;21041;-87
2021/06/19 17:09:19;;;;;;;;;;;;;;;;;;;;;
2021/06/19 17:19:44;;;;;;;;;;;;;;;5.24;100.00;98865.66;4990477;28;19926;-88
2021/06/19 17:29:28;;;;;;;;;;;;;;;5.21;100.00;98863.13;4998044;28;19929;-88
2021/06/19 17:31:56;;;;;;;;;;;;;;;5.18;100.00;98853.59;4982409;28;20209;-87
2021/06/19 18:06:56;;;;;;;;;;;;;;;4.96;100.00;98855.25;4978343;28;19945;-88
2021/06/19 18:16:38;;;;;;;;;;;;;;;4.91;100.00;98839.66;4974918;28;19926;-88
2021/06/19 19:14:59;;;;;;;;;;;;;;;4.73;100.00;98897.13;4966654;28;19934;-89
2021/06/19 19:29:03;;;;;;;;;;;;;;;4.75;100.00;98876.09;4979469;28;20331;-90
2021/06/19 19:31:38;;;;;;;;;;;;;;;4.79;100.00;98869.84;4967789;28;19986;-89
2021/06/19 19:36:56;;;;;;;;;;;;;;;;;;;;;
2021/06/19 19:40:00;;;;;;;;;;;;;;;;;;;;;
2021/06/19 19:45:05;;;;;;;;;;;;;;;4.84;100.00;98828.53;4978164;28;20324;-89
2021/06/19 19:47:31;;;;;;;;;;;;;;;4.81;100.00;98831.25;4957578;28;19936;-89
2021/06/19 19:54:56;;;;;;;;;;;;;;;;;;;;;
2021/06/19 20:02:25;;;;;;;;;;;;;;;4.75;100.00;98818.34;4976925;28;19917;-90
2021/06/19 20:05:42;;;;;;;;;;;;;;;4.70;100.00;98809.78;4979059;28;19922;-90
2021/06/19 20:08:23;;;;;;;;;;;;;;;4.76;100.00;98809.56;4974831;28;20024;-88
2021/06/19 20:11:00;;;;;;;;;;;;;;;4.71;100.00;98814.97;4969124;28;19930;-88
2021/06/19 20:18:51;;;;;;;;;;;;;;;4.73;100.00;98823.66;4970889;28;19977;-87
2021/06/19 20:40:29;;;;;;;;;;;;;;;5.35;100.00;98795.19;5093972;23;19937;-90
2021/06/19 21:53:04;;;;;;;;;;;;;;;5.22;100.00;98776.41;4997670;28;20397;-89
2021/06/19 22:03:12;;;;;;;;;;;;;;;5.21;100.00;98772.06;4998683;28;19930;-88
2021/06/19 22:05:38;;;;;;;;;;;;;;;5.21;100.00;98781.72;4977723;28;19949;-88
2021/06/19 22:24:46;;;;;;;;;;;;;;;5.24;100.00;98761.44;4996412;28;19937;-89
2021/06/19 22:27:14;;;;;;;;;;;;;;;5.22;100.00;98768.53;4997834;28;19934;-89
2021/06/19 22:36:01;;;;;;;;;;;;;;;6.35;100.00;98804.47;4989161;28;19999;-89
2021/06/19 22:41:31;;;;;;;;;;;;;;;6.35;100.00;98825.53;4997656;28;19925;-91
2021/06/19 22:44:05;;;;;;;;;;;;;;;6.47;100.00;98831.19;4980599;28;19933;-89
2021/06/19 22:50:24;;;;;;;;;;;;;;;;;;;;;
2021/06/19 23:00:37;;;;;;;;;;;;;;;6.64;100.00;98862.09;5104388;28;20257;-87
2021/06/19 23:03:03;;;;;;;;;;;;;;;6.57;100.00;98877.25;5114459;28;19932;-86
2021/06/19 23:05:29;;;;;;;;;;;;;;;6.61;100.00;98880.66;5116901;28;19916;-88
